createdAt,value
2019-05-16T00:00:31.826Z,14.53
2019-05-16T00:03:00.396Z,14.69
2019-05-16T00:05:29.298Z,14.88
2019-05-16T00:07:59.053Z,14.92
2019-05-16T00:10:28.346Z,14.86
2019-05-16T00:12:59.555Z,14.83
2019-05-16T00:15:28.704Z,14.80
2019-05-16T00:17:58.324Z,14.84
2019-05-16T00:20:28.513Z,14.82
2019-05-16T00:22:58.895Z,14.81
2019-05-16T00:25:28.629Z,14.75
2019-05-16T00:27:58.699Z,14.72
2019-05-16T00:30:28.732Z,14.68
2019-05-16T00:32:58.831Z,14.64
2019-05-16T00:35:28.497Z,14.59
2019-05-16T00:37:58.985Z,14.53
2019-05-16T00:40:27.976Z,14.63
2019-05-16T00:42:58.751Z,14.67
2019-05-16T00:45:29.426Z,14.74
2019-05-16T00:47:58.741Z,14.77
2019-05-16T00:50:28.828Z,14.50
2019-05-16T00:52:58.920Z,14.53
2019-05-16T00:55:28.994Z,14.74
2019-05-16T00:57:58.413Z,14.65
2019-05-16T01:00:42.063Z,14.56
2019-05-16T01:03:10.632Z,14.68
2019-05-16T01:05:39.331Z,14.59
2019-05-16T01:08:08.083Z,14.51
2019-05-16T01:10:38.922Z,14.43
2019-05-16T01:13:07.979Z,14.32
2019-05-16T01:15:38.029Z,14.50
2019-05-16T01:18:08.064Z,14.61
2019-05-16T01:20:38.651Z,14.36
2019-05-16T01:23:08.895Z,14.41
2019-05-16T01:25:38.741Z,14.45
2019-05-16T01:28:08.891Z,14.47
2019-05-16T01:30:38.217Z,14.27
2019-05-16T01:33:08.938Z,13.97
2019-05-16T01:35:38.606Z,13.72
2019-05-16T01:38:08.636Z,13.69
2019-05-16T01:40:38.709Z,13.57
2019-05-16T01:43:08.569Z,13.54
2019-05-16T01:45:38.520Z,13.50
2019-05-16T01:48:08.218Z,13.53
2019-05-16T01:50:38.837Z,13.47
2019-05-16T01:53:08.682Z,13.47
2019-05-16T01:55:38.098Z,13.53
2019-05-16T01:58:08.041Z,13.52
2019-05-16T02:00:48.004Z,13.47
2019-05-16T02:03:08.290Z,13.47
2019-05-16T02:05:38.768Z,13.49
2019-05-16T02:08:08.839Z,13.53
2019-05-16T02:10:38.033Z,13.41
2019-05-16T02:13:08.494Z,13.30
2019-05-16T02:15:38.381Z,13.20
2019-05-16T02:18:08.273Z,13.16
2019-05-16T02:20:39.318Z,13.13
2019-05-16T02:23:08.142Z,13.13
2019-05-16T02:25:38.135Z,13.13
2019-05-16T02:28:07.255Z,13.06
2019-05-16T02:30:35.835Z,13.17
2019-05-16T02:33:04.484Z,13.16
2019-05-16T02:35:33.064Z,13.02
2019-05-16T02:38:01.644Z,12.99
2019-05-16T02:40:31.330Z,12.99
2019-05-16T02:43:01.636Z,12.97
2019-05-16T02:45:32.450Z,12.98
2019-05-16T02:48:01.492Z,13.05
2019-05-16T02:50:31.618Z,13.07
2019-05-16T02:53:01.653Z,13.12
2019-05-16T02:55:30.910Z,13.04
2019-05-16T02:58:00.910Z,12.91
2019-05-16T03:00:42.028Z,12.88
2019-05-16T03:03:11.636Z,12.77
2019-05-16T03:05:41.825Z,12.77
2019-05-16T03:08:12.258Z,12.86
2019-05-16T03:10:41.495Z,12.85
2019-05-16T03:13:11.455Z,12.80
2019-05-16T03:15:40.976Z,12.74
2019-05-16T03:18:12.238Z,12.64
2019-05-16T03:20:42.108Z,12.66
2019-05-16T03:23:11.517Z,12.60
2019-05-16T03:25:41.810Z,12.58
2019-05-16T03:28:11.109Z,12.61
2019-05-16T03:30:44.769Z,12.57
2019-05-16T03:33:19.032Z,12.50
2019-05-16T03:35:44.518Z,12.44
2019-05-16T03:38:12.166Z,12.31
2019-05-16T03:40:41.449Z,12.40
2019-05-16T03:43:11.589Z,12.48
2019-05-16T03:45:41.806Z,12.63
2019-05-16T03:48:12.062Z,12.69
2019-05-16T03:50:41.357Z,12.77
2019-05-16T03:53:11.653Z,12.94
2019-05-16T03:55:40.988Z,13.02
2019-05-16T03:58:11.745Z,13.11
2019-05-16T04:00:52.451Z,13.14
2019-05-16T04:03:21.339Z,13.17
2019-05-16T04:05:52.537Z,13.27
2019-05-16T04:08:24.472Z,13.16
2019-05-16T04:10:52.264Z,13.36
2019-05-16T04:13:21.617Z,13.54
2019-05-16T04:15:52.234Z,13.66
2019-05-16T04:18:22.216Z,13.74
2019-05-16T04:20:53.844Z,13.89
2019-05-16T04:23:22.447Z,14.13
2019-05-16T04:25:52.988Z,14.31
2019-05-16T04:28:22.653Z,14.37
2019-05-16T04:30:52.274Z,14.62
2019-05-16T04:33:22.471Z,14.91
2019-05-16T04:35:52.600Z,15.05
2019-05-16T04:38:35.176Z,15.09
2019-05-16T04:40:52.501Z,15.18
2019-05-16T04:43:22.382Z,15.20
2019-05-16T04:45:52.445Z,15.52
2019-05-16T04:48:22.307Z,15.60
2019-05-16T04:50:52.335Z,15.98
2019-05-16T04:53:21.813Z,16.40
2019-05-16T04:55:51.984Z,16.68
2019-05-16T04:58:23.138Z,17.10
2019-05-16T05:00:52.180Z,17.44
2019-05-16T05:03:21.834Z,17.51
2019-05-16T05:05:51.579Z,17.41
2019-05-16T05:08:22.117Z,17.82
2019-05-16T05:10:51.796Z,17.90
2019-05-16T05:13:23.604Z,18.06
2019-05-16T05:15:52.257Z,18.21
2019-05-16T05:18:21.553Z,18.40
2019-05-16T05:20:52.397Z,18.70
2019-05-16T05:23:21.185Z,18.99
2019-05-16T05:25:51.244Z,19.29
2019-05-16T05:28:21.252Z,19.35
2019-05-16T05:30:50.668Z,19.56
2019-05-16T05:33:21.191Z,19.92
2019-05-16T05:35:50.687Z,19.88
2019-05-16T05:38:21.387Z,19.83
2019-05-16T05:40:53.011Z,19.88
2019-05-16T05:43:21.971Z,19.60
2019-05-16T05:45:51.418Z,19.74
2019-05-16T05:48:21.677Z,20.36
2019-05-16T05:50:51.207Z,20.75
2019-05-16T05:53:20.938Z,21.11
2019-05-16T05:55:51.334Z,21.29
2019-05-16T05:58:21.002Z,21.72
2019-05-16T06:00:52.040Z,22.02
2019-05-16T06:03:22.289Z,21.71
2019-05-16T06:05:50.795Z,21.46
2019-05-16T06:08:20.546Z,20.90
2019-05-16T06:10:50.340Z,20.85
2019-05-16T06:13:20.750Z,20.52
2019-05-16T06:15:51.104Z,20.25
2019-05-16T06:18:20.322Z,20.11
2019-05-16T06:20:51.217Z,20.06
2019-05-16T06:23:20.787Z,20.09
2019-05-16T06:25:50.728Z,19.83
2019-05-16T06:28:20.600Z,20.01
2019-05-16T06:30:52.701Z,20.08
2019-05-16T06:33:21.380Z,19.91
2019-05-16T06:35:51.270Z,19.72
2019-05-16T06:38:21.230Z,19.70
2019-05-16T06:40:52.770Z,19.95
2019-05-16T06:43:20.658Z,20.12
2019-05-16T06:45:51.238Z,20.27
2019-05-16T06:48:21.234Z,20.60
2019-05-16T06:50:51.596Z,20.77
2019-05-16T06:53:21.024Z,20.90
2019-05-16T06:55:50.046Z,21.17
2019-05-16T06:58:21.797Z,21.89
2019-05-16T07:00:52.328Z,22.65
2019-05-16T07:03:20.855Z,22.88
2019-05-16T07:05:50.558Z,22.87
2019-05-16T07:08:20.592Z,22.95
2019-05-16T07:10:50.724Z,23.05
2019-05-16T07:13:20.067Z,23.06
2019-05-16T07:15:50.180Z,23.06
2019-05-16T07:18:20.735Z,22.84
2019-05-16T07:20:51.130Z,22.57
2019-05-16T07:23:20.930Z,22.10
2019-05-16T07:25:50.735Z,22.12
2019-05-16T07:28:20.906Z,21.91
2019-05-16T07:30:50.379Z,22.21
2019-05-16T07:33:21.251Z,22.48
2019-05-16T07:35:51.235Z,22.75
2019-05-16T07:38:20.455Z,22.88
2019-05-16T07:40:51.216Z,22.85
2019-05-16T07:43:20.408Z,22.80
2019-05-16T07:45:51.221Z,22.62
2019-05-16T07:48:21.520Z,22.32
2019-05-16T07:50:50.317Z,22.13
2019-05-16T07:53:21.153Z,22.25
2019-05-16T07:55:50.974Z,22.15
2019-05-16T07:58:21.991Z,22.46
2019-05-16T08:01:01.908Z,22.18
2019-05-16T08:03:20.722Z,22.15
2019-05-16T08:05:51.516Z,22.10
2019-05-16T08:08:23.843Z,22.12
2019-05-16T08:10:51.208Z,21.93
2019-05-16T08:15:51.003Z,22.17
2019-05-16T08:18:21.362Z,23.14
2019-05-16T08:20:52.355Z,23.58
2019-05-16T08:25:50.804Z,23.94
2019-05-16T08:28:21.679Z,24.83
2019-05-16T08:33:21.887Z,25.85
2019-05-16T08:35:51.683Z,25.23
2019-05-16T08:38:21.783Z,24.43
2019-05-16T08:43:22.037Z,23.61
2019-05-16T08:45:51.925Z,22.98
2019-05-16T08:48:23.138Z,22.40
2019-05-16T08:50:05.719Z,21.94
2019-05-16T08:50:54.775Z,21.93
2019-05-16T08:53:22.330Z,21.09
2019-05-16T08:55:51.181Z,20.07
2019-05-16T08:58:22.507Z,19.47
2019-05-16T09:00:55.182Z,18.97
2019-05-16T09:03:23.683Z,18.38
2019-05-16T09:05:53.514Z,18.23
2019-05-16T09:08:22.629Z,18.50
2019-05-16T09:10:11.184Z,24.13
2019-05-16T09:10:42.042Z,26.10
2019-05-16T09:11:00.696Z,18.49
2019-05-16T09:13:21.592Z,19.70
2019-05-16T09:15:50.317Z,20.48
2019-05-16T09:18:18.979Z,21.18
2019-05-16T09:20:57.179Z,22.29
2019-05-16T09:23:18.494Z,21.93
2019-05-16T09:25:48.903Z,21.55
2019-05-16T09:28:17.607Z,21.37
2019-05-16T09:30:49.060Z,21.29
2019-05-16T09:33:18.442Z,21.21
2019-05-16T09:35:47.871Z,20.98
2019-05-16T09:38:20.415Z,20.88
2019-05-16T09:40:48.083Z,20.56
2019-05-16T09:43:17.844Z,20.06
2019-05-16T09:45:47.418Z,19.78
2019-05-16T09:48:18.904Z,19.77
2019-05-16T09:50:47.159Z,19.56
2019-05-16T09:53:17.032Z,19.39
2019-05-16T09:55:46.952Z,19.20
2019-05-16T09:58:18.201Z,19.10
2019-05-16T10:00:50.284Z,19.23
2019-05-16T10:03:22.621Z,19.13
2019-05-16T10:05:49.302Z,19.08
2019-05-16T10:08:17.948Z,19.14
2019-05-16T10:10:46.691Z,19.26
2019-05-16T10:13:18.245Z,19.47
2019-05-16T10:15:47.291Z,19.46
2019-05-16T10:18:16.914Z,19.87
2019-05-16T10:20:45.902Z,20.50
2019-05-16T10:23:17.883Z,20.78
2019-05-16T10:25:47.687Z,20.69
2019-05-16T10:28:17.374Z,20.49
2019-05-16T10:30:47.057Z,20.26
2019-05-16T10:33:18.840Z,20.28
2019-05-16T10:35:47.909Z,20.21
2019-05-16T10:38:17.006Z,20.09
2019-05-16T10:40:47.564Z,19.94
2019-05-16T10:43:17.262Z,19.73
2019-05-16T10:45:46.470Z,19.37
2019-05-16T10:48:17.514Z,19.06
2019-05-16T10:50:47.803Z,18.68
2019-05-16T10:53:42.233Z,18.89
2019-05-16T10:55:47.742Z,18.88
2019-05-16T10:58:34.793Z,19.42
2019-05-16T11:01:11.129Z,19.56
2019-05-16T11:03:17.341Z,19.38
2019-05-16T11:06:01.183Z,19.66
2019-05-16T11:08:16.240Z,19.76
2019-05-16T11:10:45.540Z,19.40
2019-05-16T11:13:17.138Z,19.17
2019-05-16T11:15:45.748Z,18.90
2019-05-16T11:18:14.436Z,18.72
2019-05-16T11:20:48.080Z,18.72
2019-05-16T11:23:13.443Z,18.82
2019-05-16T11:25:42.099Z,19.15
2019-05-16T11:28:10.821Z,19.34
2019-05-16T11:30:40.022Z,19.54
2019-05-16T11:33:08.760Z,19.54
2019-05-16T11:35:38.182Z,19.52
2019-05-16T11:38:07.378Z,19.75
2019-05-16T11:40:36.164Z,20.14
2019-05-16T11:43:11.371Z,20.32
2019-05-16T11:45:36.803Z,20.19
2019-05-16T11:48:05.593Z,20.13
2019-05-16T11:50:37.052Z,20.11
2019-05-16T11:53:07.110Z,20.58
2019-05-16T11:55:50.661Z,21.52
2019-05-16T11:58:08.317Z,24.14
2019-05-16T12:00:37.388Z,28.05
2019-05-16T12:03:06.245Z,29.23
2019-05-16T12:05:37.170Z,29.36
2019-05-16T12:08:07.660Z,29.96
2019-05-16T12:10:36.335Z,30.38
2019-05-16T12:13:07.589Z,31.94
2019-05-16T12:15:36.672Z,32.10
2019-05-16T12:18:08.324Z,32.86
2019-05-16T12:20:35.819Z,34.27
2019-05-16T12:23:07.754Z,35.79
2019-05-16T12:25:36.726Z,37.15
2019-05-16T12:28:07.876Z,38.44
2019-05-16T12:30:40.114Z,37.79
2019-05-16T12:33:07.321Z,35.88
2019-05-16T12:35:36.868Z,34.55
2019-05-16T12:38:08.145Z,33.34
2019-05-16T12:40:37.580Z,33.86
2019-05-16T12:43:07.834Z,32.20
2019-05-16T12:45:38.681Z,30.69
2019-05-16T12:48:09.849Z,29.32
2019-05-16T12:50:39.097Z,28.27
2019-05-16T12:53:08.290Z,27.89
2019-05-16T12:55:37.028Z,27.31
2019-05-16T12:58:13.651Z,27.36
2019-05-16T13:00:37.143Z,27.52
2019-05-16T13:03:09.007Z,27.47
2019-05-16T13:05:37.857Z,29.34
2019-05-16T13:08:06.505Z,32.02
2019-05-16T13:10:37.731Z,33.25
2019-05-16T13:13:07.769Z,34.04
2019-05-16T13:15:37.919Z,33.88
2019-05-16T13:18:07.859Z,32.33
2019-05-16T13:20:39.335Z,32.95
2019-05-16T13:23:14.361Z,33.47
2019-05-16T13:25:37.596Z,33.00
2019-05-16T13:28:08.118Z,31.25
2019-05-16T13:30:37.724Z,29.64
2019-05-16T13:33:07.229Z,28.56
2019-05-16T13:35:54.387Z,28.13
2019-05-16T13:38:22.961Z,27.70
2019-05-16T13:40:51.742Z,27.46
2019-05-16T13:43:20.331Z,26.97
2019-05-16T13:45:48.989Z,27.51
2019-05-16T13:48:17.633Z,28.49
2019-05-16T13:50:47.333Z,28.32
2019-05-16T13:53:16.523Z,27.30
2019-05-16T13:55:45.319Z,26.49
2019-05-16T13:58:13.954Z,26.04
2019-05-16T14:00:42.596Z,25.85
2019-05-16T14:03:11.267Z,27.39
2019-05-16T14:05:39.909Z,29.52
2019-05-16T14:08:08.572Z,29.25
2019-05-16T14:10:37.739Z,28.34
2019-05-16T14:13:07.531Z,28.12
2019-05-16T14:15:36.871Z,29.14
2019-05-16T14:18:07.695Z,30.17
2019-05-16T14:20:37.820Z,29.69
2019-05-16T14:23:08.498Z,29.33
2019-05-16T14:25:38.065Z,28.49
2019-05-16T14:28:07.862Z,28.72
2019-05-16T14:30:37.399Z,30.54
2019-05-16T14:33:13.526Z,32.97
2019-05-16T14:35:37.640Z,34.29
2019-05-16T14:38:06.788Z,34.80
2019-05-16T14:40:37.351Z,34.72
2019-05-16T14:43:08.351Z,34.09
2019-05-16T14:45:37.150Z,32.39
2019-05-16T14:48:07.530Z,30.91
2019-05-16T14:50:37.564Z,30.34
2019-05-16T14:53:07.495Z,29.53
2019-05-16T14:55:38.113Z,28.97
2019-05-16T14:58:07.655Z,28.32
2019-05-16T15:00:38.364Z,26.95
2019-05-16T15:03:08.358Z,26.09
2019-05-16T15:05:42.526Z,25.24
2019-05-16T15:08:08.545Z,24.78
2019-05-16T15:10:37.785Z,24.25
2019-05-16T15:13:07.902Z,23.86
2019-05-16T15:15:39.548Z,23.66
2019-05-16T15:18:08.510Z,23.50
2019-05-16T15:20:37.209Z,23.40
2019-05-16T15:23:07.746Z,22.98
2019-05-16T15:25:37.551Z,22.43
2019-05-16T15:28:07.568Z,22.48
2019-05-16T15:30:39.049Z,22.85
2019-05-16T15:33:08.519Z,24.05
2019-05-16T15:35:38.142Z,24.94
2019-05-16T15:38:08.013Z,25.33
2019-05-16T15:40:37.568Z,25.22
2019-05-16T15:43:07.881Z,25.09
2019-05-16T15:45:44.208Z,25.13
2019-05-16T15:48:12.729Z,24.29
2019-05-16T15:50:41.984Z,23.43
2019-05-16T15:53:10.617Z,23.01
2019-05-16T15:55:39.271Z,22.53
2019-05-16T15:58:10.254Z,22.09
2019-05-16T16:00:40.584Z,21.83
2019-05-16T16:03:09.229Z,21.61
2019-05-16T16:05:37.885Z,21.48
2019-05-16T16:08:07.028Z,21.25
2019-05-16T16:10:38.103Z,20.84
2019-05-16T16:13:07.046Z,20.69
2019-05-16T16:15:49.871Z,20.53
2019-05-16T16:18:08.887Z,20.39
2019-05-16T16:20:38.036Z,20.21
2019-05-16T16:23:07.047Z,20.14
2019-05-16T16:25:35.937Z,20.10
2019-05-16T16:28:07.391Z,20.01
2019-05-16T16:30:37.329Z,19.74
2019-05-16T16:33:19.036Z,19.58
2019-05-16T16:35:37.996Z,19.52
2019-05-16T16:38:07.037Z,19.35
2019-05-16T16:40:37.531Z,19.34
2019-05-16T16:43:08.038Z,19.33
2019-05-16T16:45:39.512Z,19.22
2019-05-16T16:48:08.228Z,19.11
2019-05-16T16:50:37.205Z,19.14
2019-05-16T16:53:07.154Z,19.16
2019-05-16T16:55:36.972Z,19.35
2019-05-16T16:58:09.664Z,19.49
2019-05-16T17:00:38.479Z,19.59
2019-05-16T17:03:10.429Z,19.45
2019-05-16T17:05:37.477Z,19.37
2019-05-16T17:08:07.579Z,19.24
2019-05-16T17:10:38.074Z,19.17
2019-05-16T17:13:07.130Z,19.05
2019-05-16T17:15:36.689Z,18.93
2019-05-16T17:18:07.050Z,18.77
2019-05-16T17:20:37.191Z,18.60
2019-05-16T17:23:06.857Z,18.50
2019-05-16T17:25:36.670Z,18.38
2019-05-16T17:28:07.021Z,18.24
2019-05-16T17:30:36.886Z,18.16
2019-05-16T17:33:07.670Z,18.03
2019-05-16T17:35:38.744Z,17.90
2019-05-16T17:38:06.910Z,17.82
2019-05-16T17:40:38.138Z,17.79
2019-05-16T17:43:07.276Z,17.72
2019-05-16T17:45:37.532Z,17.60
2019-05-16T17:48:06.862Z,17.58
2019-05-16T17:50:37.331Z,17.48
2019-05-16T17:53:07.193Z,17.53
2019-05-16T17:55:38.739Z,17.30
2019-05-16T17:58:09.052Z,17.30
2019-05-16T18:00:37.850Z,17.22
2019-05-16T18:03:06.875Z,17.20
2019-05-16T18:05:37.109Z,17.20
2019-05-16T18:08:07.391Z,17.19
2019-05-16T18:10:36.742Z,17.12
2019-05-16T18:13:07.739Z,17.12
2019-05-16T18:15:36.823Z,17.02
2019-05-16T18:18:07.035Z,17.02
2019-05-16T18:20:37.296Z,17.09
2019-05-16T18:23:07.005Z,17.09
2019-05-16T18:25:36.625Z,17.11
2019-05-16T18:28:07.928Z,17.11
2019-05-16T18:30:36.723Z,17.09
2019-05-16T18:33:07.366Z,17.10
2019-05-16T18:35:37.120Z,17.09
2019-05-16T18:38:08.696Z,17.19
2019-05-16T18:40:37.364Z,17.19
2019-05-16T18:43:08.201Z,17.24
2019-05-16T18:45:37.879Z,17.20
2019-05-16T18:48:07.596Z,17.17
2019-05-16T18:50:38.055Z,17.17
2019-05-16T18:53:07.770Z,17.14
2019-05-16T18:55:37.406Z,17.04
2019-05-16T18:58:08.417Z,16.80
2019-05-16T19:00:37.747Z,16.73
2019-05-16T19:03:07.714Z,16.86
2019-05-16T19:05:37.472Z,16.86
2019-05-16T19:08:07.227Z,17.02
2019-05-16T19:10:36.835Z,16.97
2019-05-16T19:13:08.109Z,16.95
2019-05-16T19:15:37.461Z,16.91
2019-05-16T19:18:06.854Z,16.85
2019-05-16T19:20:37.496Z,16.76
2019-05-16T19:23:07.420Z,16.64
2019-05-16T19:25:36.378Z,16.53
2019-05-16T19:28:06.971Z,16.44
2019-05-16T19:30:37.373Z,16.38
2019-05-16T19:33:06.879Z,16.36
2019-05-16T19:35:35.951Z,16.40
2019-05-16T19:38:06.683Z,16.43
2019-05-16T19:40:40.497Z,16.43
2019-05-16T19:43:08.302Z,16.39
2019-05-16T19:45:37.409Z,16.33
2019-05-16T19:48:07.169Z,16.26
2019-05-16T19:50:37.155Z,16.15
2019-05-16T19:53:07.722Z,16.08
2019-05-16T19:55:36.683Z,16.06
2019-05-16T19:58:06.818Z,16.07
2019-05-16T20:00:37.443Z,16.09
2019-05-16T20:03:09.112Z,16.10
2019-05-16T20:05:37.839Z,16.05
2019-05-16T20:08:06.979Z,16.00
2019-05-16T20:10:36.625Z,15.98
2019-05-16T20:13:07.687Z,15.97
2019-05-16T20:15:36.575Z,15.95
2019-05-16T20:18:07.834Z,15.97
2019-05-16T20:20:37.185Z,16.01
2019-05-16T20:23:06.406Z,16.02
2019-05-16T20:25:36.572Z,16.01
2019-05-16T20:28:08.791Z,15.98
2019-05-16T20:30:37.201Z,15.93
2019-05-16T20:33:07.008Z,15.86
2019-05-16T20:35:37.502Z,15.83
2019-05-16T20:38:09.071Z,15.77
2019-05-16T20:40:37.738Z,15.75
2019-05-16T20:43:07.633Z,15.67
2019-05-16T20:45:39.799Z,15.60
2019-05-16T20:48:12.051Z,15.49
2019-05-16T20:50:37.494Z,15.41
2019-05-16T20:53:07.220Z,15.28
2019-05-16T20:55:37.619Z,15.17
2019-05-16T20:58:07.756Z,15.02
2019-05-16T21:00:37.830Z,14.91
2019-05-16T21:03:07.185Z,14.88
2019-05-16T21:05:38.217Z,14.80
2019-05-16T21:08:06.776Z,14.74
2019-05-16T21:10:35.573Z,14.62
2019-05-16T21:13:06.671Z,14.54
2019-05-16T21:15:37.081Z,14.41
2019-05-16T21:18:07.323Z,14.36
2019-05-16T21:20:35.454Z,14.27
2019-05-16T21:23:04.153Z,14.18
2019-05-16T21:25:32.791Z,14.09
2019-05-16T21:28:01.366Z,13.98
2019-05-16T21:30:30.052Z,13.93
2019-05-16T21:32:58.685Z,13.80
2019-05-16T21:35:27.333Z,13.43
2019-05-16T21:37:55.942Z,13.30
2019-05-16T21:40:26.515Z,13.46
2019-05-16T21:42:58.490Z,13.63
2019-05-16T21:45:28.474Z,13.69
2019-05-16T21:47:56.802Z,13.72
2019-05-16T21:50:27.542Z,13.68
2019-05-16T21:52:56.602Z,13.62
2019-05-16T21:55:29.726Z,13.58
2019-05-16T21:57:57.408Z,13.53
2019-05-16T22:00:44.322Z,13.48
2019-05-16T22:03:14.465Z,13.40
2019-05-16T22:05:43.129Z,13.40
2019-05-16T22:08:11.995Z,13.36
2019-05-16T22:10:40.821Z,13.32
2019-05-16T22:13:09.449Z,13.30
2019-05-16T22:15:38.129Z,13.30
2019-05-16T22:18:07.384Z,13.30
2019-05-16T22:20:36.198Z,13.33
2019-05-16T22:23:06.992Z,13.29
2019-05-16T22:25:35.198Z,13.30
2019-05-16T22:28:06.950Z,13.30
2019-05-16T22:30:36.414Z,13.27
2019-05-16T22:33:08.821Z,13.25
2019-05-16T22:35:37.349Z,13.21
2019-05-16T22:38:06.492Z,13.24
2019-05-16T22:40:37.338Z,13.23
2019-05-16T22:43:07.225Z,13.22
2019-05-16T22:45:37.341Z,13.12
2019-05-16T22:48:07.140Z,13.06
2019-05-16T22:50:36.478Z,13.01
2019-05-16T22:53:06.387Z,12.99
2019-05-16T22:55:37.226Z,12.86
2019-05-16T22:58:07.383Z,12.86
2019-05-16T23:00:38.980Z,12.96
2019-05-16T23:03:06.860Z,12.93
2019-05-16T23:05:36.848Z,12.94
2019-05-16T23:08:09.599Z,12.99
2019-05-16T23:10:36.830Z,12.94
2019-05-16T23:13:06.778Z,12.93
2019-05-16T23:15:36.722Z,12.89
2019-05-16T23:18:06.980Z,12.90
2019-05-16T23:20:37.067Z,12.82
2019-05-16T23:23:07.152Z,12.85
2019-05-16T23:25:37.158Z,12.89
2019-05-16T23:28:07.632Z,12.86
2019-05-16T23:30:36.683Z,12.85
2019-05-16T23:33:07.113Z,12.82
2019-05-16T23:35:37.550Z,12.84
2019-05-16T23:38:18.558Z,12.84
2019-05-16T23:40:37.598Z,12.80
2019-05-16T23:43:07.659Z,12.67
2019-05-16T23:45:37.630Z,12.72
2019-05-16T23:48:10.734Z,12.74
2019-05-16T23:50:36.913Z,12.65
2019-05-16T23:53:07.291Z,12.57
2019-05-16T23:55:37.294Z,12.67
2019-05-16T23:58:06.959Z,12.64
